sensor_id;sensor_type;location;lat;lon;timestamp;P1;durP1;ratioP1;P2;durP2;ratioP2
3081;SDS011;1551;51.046;7.010;2023-04-28T00:00:07;7.03;;;4.10;;
3081;SDS011;1551;51.046;7.010;2023-04-28T00:02:56;5.75;;;3.80;;
3081;SDS011;1551;51.046;7.010;2023-04-28T00:05:45;5.93;;;3.70;;
3081;SDS011;1551;51.046;7.010;2023-04-28T00:08:35;4.57;;;4.00;;
3081;SDS011;1551;51.046;7.010;2023-04-28T00:11:24;6.40;;;4.10;;
3081;SDS011;1551;51.046;7.010;2023-04-28T00:14:13;7.68;;;4.30;;
3081;SDS011;1551;51.046;7.010;2023-04-28T00:17:02;5.70;;;4.17;;
3081;SDS011;1551;51.046;7.010;2023-04-28T00:19:51;6.95;;;3.92;;
3081;SDS011;1551;51.046;7.010;2023-04-28T00:22:41;5.50;;;3.50;;
3081;SDS011;1551;51.046;7.010;2023-04-28T00:25:30;5.38;;;4.20;;
3081;SDS011;1551;51.046;7.010;2023-04-28T00:28:19;5.32;;;3.60;;
3081;SDS011;1551;51.046;7.010;2023-04-28T00:31:09;5.97;;;4.25;;
3081;SDS011;1551;51.046;7.010;2023-04-28T00:34:00;6.40;;;4.15;;
3081;SDS011;1551;51.046;7.010;2023-04-28T00:36:48;5.50;;;4.20;;
3081;SDS011;1551;51.046;7.010;2023-04-28T00:39:37;6.90;;;5.20;;
3081;SDS011;1551;51.046;7.010;2023-04-28T00:42:27;6.60;;;4.22;;
3081;SDS011;1551;51.046;7.010;2023-04-28T00:45:16;5.80;;;4.03;;
3081;SDS011;1551;51.046;7.010;2023-04-28T00:48:05;6.20;;;4.30;;
3081;SDS011;1551;51.046;7.010;2023-04-28T00:50:55;7.33;;;4.17;;
3081;SDS011;1551;51.046;7.010;2023-04-28T00:53:44;5.22;;;4.20;;
3081;SDS011;1551;51.046;7.010;2023-04-28T00:56:33;5.93;;;4.50;;
3081;SDS011;1551;51.046;7.010;2023-04-28T00:59:21;10.55;;;4.75;;
3081;SDS011;1551;51.046;7.010;2023-04-28T01:02:10;6.68;;;4.50;;
3081;SDS011;1551;51.046;7.010;2023-04-28T01:05:05;9.00;;;4.95;;
3081;SDS011;1551;51.046;7.010;2023-04-28T01:07:56;6.00;;;4.40;;
3081;SDS011;1551;51.046;7.010;2023-04-28T01:10:45;7.70;;;4.57;;
3081;SDS011;1551;51.046;7.010;2023-04-28T01:13:46;6.33;;;4.50;;
3081;SDS011;1551;51.046;7.010;2023-04-28T01:16:35;6.15;;;4.05;;
3081;SDS011;1551;51.046;7.010;2023-04-28T01:19:26;5.80;;;4.20;;
3081;SDS011;1551;51.046;7.010;2023-04-28T01:22:17;5.65;;;3.88;;
3081;SDS011;1551;51.046;7.010;2023-04-28T01:25:08;5.90;;;4.65;;
3081;SDS011;1551;51.046;7.010;2023-04-28T01:27:56;7.50;;;4.90;;
3081;SDS011;1551;51.046;7.010;2023-04-28T01:30:45;5.20;;;3.92;;
3081;SDS011;1551;51.046;7.010;2023-04-28T01:33:34;6.10;;;3.95;;
3081;SDS011;1551;51.046;7.010;2023-04-28T01:36:24;6.72;;;4.65;;
3081;SDS011;1551;51.046;7.010;2023-04-28T01:39:15;5.85;;;4.75;;
3081;SDS011;1551;51.046;7.010;2023-04-28T01:42:05;7.40;;;4.53;;
3081;SDS011;1551;51.046;7.010;2023-04-28T01:44:55;7.68;;;5.20;;
3081;SDS011;1551;51.046;7.010;2023-04-28T01:47:43;6.45;;;5.10;;
3081;SDS011;1551;51.046;7.010;2023-04-28T01:50:32;8.07;;;4.80;;
3081;SDS011;1551;51.046;7.010;2023-04-28T01:53:21;8.70;;;4.83;;
3081;SDS011;1551;51.046;7.010;2023-04-28T01:56:10;7.05;;;5.10;;
3081;SDS011;1551;51.046;7.010;2023-04-28T01:59:00;7.70;;;4.68;;
3081;SDS011;1551;51.046;7.010;2023-04-28T02:01:50;5.70;;;4.53;;
3081;SDS011;1551;51.046;7.010;2023-04-28T02:04:39;7.95;;;4.70;;
3081;SDS011;1551;51.046;7.010;2023-04-28T02:07:28;6.78;;;4.40;;
3081;SDS011;1551;51.046;7.010;2023-04-28T02:10:17;5.57;;;4.03;;
3081;SDS011;1551;51.046;7.010;2023-04-28T02:13:06;5.25;;;4.63;;
3081;SDS011;1551;51.046;7.010;2023-04-28T02:15:55;5.30;;;4.40;;
3081;SDS011;1551;51.046;7.010;2023-04-28T02:18:43;5.88;;;4.63;;
3081;SDS011;1551;51.046;7.010;2023-04-28T02:21:32;5.18;;;4.15;;
3081;SDS011;1551;51.046;7.010;2023-04-28T02:24:21;5.20;;;4.60;;
3081;SDS011;1551;51.046;7.010;2023-04-28T02:27:12;7.15;;;4.50;;
3081;SDS011;1551;51.046;7.010;2023-04-28T02:30:02;5.47;;;4.70;;
3081;SDS011;1551;51.046;7.010;2023-04-28T02:32:54;6.97;;;4.40;;
3081;SDS011;1551;51.046;7.010;2023-04-28T02:35:43;8.23;;;4.85;;
3081;SDS011;1551;51.046;7.010;2023-04-28T02:38:32;6.90;;;4.80;;
3081;SDS011;1551;51.046;7.010;2023-04-28T02:41:21;5.83;;;4.53;;
3081;SDS011;1551;51.046;7.010;2023-04-28T02:44:11;5.95;;;4.63;;
3081;SDS011;1551;51.046;7.010;2023-04-28T02:47:00;7.38;;;4.90;;
3081;SDS011;1551;51.046;7.010;2023-04-28T02:49:50;6.63;;;4.38;;
3081;SDS011;1551;51.046;7.010;2023-04-28T02:52:40;6.20;;;4.70;;
3081;SDS011;1551;51.046;7.010;2023-04-28T02:55:29;6.35;;;4.80;;
3081;SDS011;1551;51.046;7.010;2023-04-28T02:58:18;6.85;;;4.90;;
3081;SDS011;1551;51.046;7.010;2023-04-28T03:01:07;6.38;;;5.05;;
3081;SDS011;1551;51.046;7.010;2023-04-28T03:03:56;6.47;;;4.80;;
3081;SDS011;1551;51.046;7.010;2023-04-28T03:06:45;8.02;;;4.85;;
3081;SDS011;1551;51.046;7.010;2023-04-28T03:09:34;10.10;;;5.20;;
3081;SDS011;1551;51.046;7.010;2023-04-28T03:12:24;6.00;;;5.00;;
3081;SDS011;1551;51.046;7.010;2023-04-28T03:15:13;5.53;;;4.72;;
3081;SDS011;1551;51.046;7.010;2023-04-28T03:18:02;6.00;;;4.82;;
3081;SDS011;1551;51.046;7.010;2023-04-28T03:20:51;7.43;;;4.85;;
3081;SDS011;1551;51.046;7.010;2023-04-28T03:23:40;8.27;;;5.47;;
3081;SDS011;1551;51.046;7.010;2023-04-28T03:26:29;6.20;;;4.30;;
3081;SDS011;1551;51.046;7.010;2023-04-28T03:29:20;5.75;;;5.15;;
3081;SDS011;1551;51.046;7.010;2023-04-28T03:32:08;7.43;;;5.28;;
3081;SDS011;1551;51.046;7.010;2023-04-28T03:34:58;9.63;;;5.60;;
3081;SDS011;1551;51.046;7.010;2023-04-28T03:37:47;7.75;;;5.88;;
3081;SDS011;1551;51.046;7.010;2023-04-28T03:40:37;8.05;;;5.57;;
3081;SDS011;1551;51.046;7.010;2023-04-28T03:43:49;9.32;;;6.15;;
3081;SDS011;1551;51.046;7.010;2023-04-28T03:46:47;7.47;;;5.60;;
3081;SDS011;1551;51.046;7.010;2023-04-28T03:49:37;7.10;;;5.50;;
3081;SDS011;1551;51.046;7.010;2023-04-28T03:52:26;8.70;;;5.88;;
3081;SDS011;1551;51.046;7.010;2023-04-28T03:55:15;7.80;;;5.75;;
3081;SDS011;1551;51.046;7.010;2023-04-28T03:58:04;8.45;;;5.32;;
3081;SDS011;1551;51.046;7.010;2023-04-28T04:00:53;9.07;;;5.70;;
3081;SDS011;1551;51.046;7.010;2023-04-28T04:03:42;7.60;;;6.07;;
3081;SDS011;1551;51.046;7.010;2023-04-28T04:06:31;7.80;;;6.20;;
3081;SDS011;1551;51.046;7.010;2023-04-28T04:09:21;8.95;;;6.30;;
3081;SDS011;1551;51.046;7.010;2023-04-28T04:12:11;6.70;;;5.43;;
3081;SDS011;1551;51.046;7.010;2023-04-28T04:14:59;6.97;;;6.10;;
3081;SDS011;1551;51.046;7.010;2023-04-28T04:17:49;7.80;;;6.23;;
3081;SDS011;1551;51.046;7.010;2023-04-28T04:20:38;8.65;;;6.07;;
3081;SDS011;1551;51.046;7.010;2023-04-28T04:23:27;8.00;;;6.60;;
3081;SDS011;1551;51.046;7.010;2023-04-28T04:26:17;9.82;;;6.70;;
3081;SDS011;1551;51.046;7.010;2023-04-28T04:29:06;8.40;;;6.50;;
3081;SDS011;1551;51.046;7.010;2023-04-28T04:31:55;8.40;;;6.70;;
3081;SDS011;1551;51.046;7.010;2023-04-28T04:34:44;8.63;;;5.90;;
3081;SDS011;1551;51.046;7.010;2023-04-28T04:37:33;8.23;;;6.00;;
3081;SDS011;1551;51.046;7.010;2023-04-28T04:40:24;8.02;;;6.22;;
3081;SDS011;1551;51.046;7.010;2023-04-28T04:43:13;9.55;;;6.20;;
3081;SDS011;1551;51.046;7.010;2023-04-28T04:46:07;9.25;;;7.05;;
3081;SDS011;1551;51.046;7.010;2023-04-28T04:48:57;7.68;;;6.43;;
3081;SDS011;1551;51.046;7.010;2023-04-28T04:51:46;10.77;;;6.13;;
3081;SDS011;1551;51.046;7.010;2023-04-28T04:54:35;8.45;;;6.10;;
3081;SDS011;1551;51.046;7.010;2023-04-28T04:57:25;9.65;;;6.60;;
3081;SDS011;1551;51.046;7.010;2023-04-28T05:00:41;9.70;;;5.97;;
3081;SDS011;1551;51.046;7.010;2023-04-28T05:03:31;7.97;;;5.75;;
3081;SDS011;1551;51.046;7.010;2023-04-28T05:06:21;8.27;;;6.43;;
3081;SDS011;1551;51.046;7.010;2023-04-28T05:09:11;8.07;;;5.97;;
3081;SDS011;1551;51.046;7.010;2023-04-28T05:12:00;8.03;;;5.80;;
3081;SDS011;1551;51.046;7.010;2023-04-28T05:14:49;9.82;;;6.00;;
3081;SDS011;1551;51.046;7.010;2023-04-28T05:17:41;7.78;;;5.88;;
3081;SDS011;1551;51.046;7.010;2023-04-28T05:20:30;7.97;;;5.90;;
3081;SDS011;1551;51.046;7.010;2023-04-28T05:23:19;5.82;;;5.20;;
3081;SDS011;1551;51.046;7.010;2023-04-28T05:26:09;7.70;;;5.60;;
3081;SDS011;1551;51.046;7.010;2023-04-28T05:28:58;7.75;;;5.80;;
3081;SDS011;1551;51.046;7.010;2023-04-28T05:31:48;6.80;;;5.28;;
3081;SDS011;1551;51.046;7.010;2023-04-28T05:34:37;6.13;;;5.28;;
3081;SDS011;1551;51.046;7.010;2023-04-28T05:37:26;8.07;;;5.80;;
3081;SDS011;1551;51.046;7.010;2023-04-28T05:40:15;7.00;;;5.50;;
3081;SDS011;1551;51.046;7.010;2023-04-28T05:43:04;10.70;;;6.25;;
3081;SDS011;1551;51.046;7.010;2023-04-28T05:45:54;8.70;;;5.80;;
3081;SDS011;1551;51.046;7.010;2023-04-28T05:48:43;9.35;;;6.32;;
3081;SDS011;1551;51.046;7.010;2023-04-28T05:51:33;8.25;;;6.30;;
3081;SDS011;1551;51.046;7.010;2023-04-28T05:54:21;7.80;;;6.07;;
3081;SDS011;1551;51.046;7.010;2023-04-28T05:57:14;6.85;;;5.63;;
3081;SDS011;1551;51.046;7.010;2023-04-28T06:00:03;6.30;;;5.20;;
3081;SDS011;1551;51.046;7.010;2023-04-28T06:03:01;6.50;;;5.80;;
3081;SDS011;1551;51.046;7.010;2023-04-28T06:05:50;7.93;;;6.15;;
3081;SDS011;1551;51.046;7.010;2023-04-28T06:08:39;9.40;;;5.47;;
3081;SDS011;1551;51.046;7.010;2023-04-28T06:11:28;8.25;;;6.00;;
3081;SDS011;1551;51.046;7.010;2023-04-28T06:14:17;7.28;;;5.68;;
3081;SDS011;1551;51.046;7.010;2023-04-28T06:17:06;7.13;;;5.30;;
3081;SDS011;1551;51.046;7.010;2023-04-28T06:19:56;9.73;;;6.22;;
3081;SDS011;1551;51.046;7.010;2023-04-28T06:22:46;8.57;;;5.10;;
3081;SDS011;1551;51.046;7.010;2023-04-28T06:25:35;7.73;;;5.30;;
3081;SDS011;1551;51.046;7.010;2023-04-28T06:28:24;8.95;;;5.30;;
3081;SDS011;1551;51.046;7.010;2023-04-28T06:31:15;7.30;;;5.80;;
3081;SDS011;1551;51.046;7.010;2023-04-28T06:34:04;9.55;;;5.63;;
3081;SDS011;1551;51.046;7.010;2023-04-28T06:36:53;7.18;;;5.72;;
3081;SDS011;1551;51.046;7.010;2023-04-28T06:39:43;7.20;;;5.97;;
3081;SDS011;1551;51.046;7.010;2023-04-28T06:42:32;6.53;;;5.70;;
3081;SDS011;1551;51.046;7.010;2023-04-28T06:45:28;7.57;;;5.60;;
3081;SDS011;1551;51.046;7.010;2023-04-28T06:48:19;10.10;;;6.20;;
3081;SDS011;1551;51.046;7.010;2023-04-28T06:51:08;8.40;;;5.80;;
3081;SDS011;1551;51.046;7.010;2023-04-28T06:53:57;7.05;;;5.80;;
3081;SDS011;1551;51.046;7.010;2023-04-28T06:56:46;8.13;;;5.70;;
3081;SDS011;1551;51.046;7.010;2023-04-28T06:59:35;8.70;;;5.85;;
3081;SDS011;1551;51.046;7.010;2023-04-28T07:02:25;7.35;;;5.50;;
3081;SDS011;1551;51.046;7.010;2023-04-28T07:05:14;6.65;;;5.85;;
3081;SDS011;1551;51.046;7.010;2023-04-28T07:08:03;7.37;;;5.87;;
3081;SDS011;1551;51.046;7.010;2023-04-28T07:10:52;6.78;;;5.75;;
3081;SDS011;1551;51.046;7.010;2023-04-28T07:13:41;7.25;;;5.50;;
3081;SDS011;1551;51.046;7.010;2023-04-28T07:16:30;5.87;;;5.27;;
3081;SDS011;1551;51.046;7.010;2023-04-28T07:19:19;7.65;;;5.47;;
3081;SDS011;1551;51.046;7.010;2023-04-28T07:22:08;11.27;;;5.47;;
3081;SDS011;1551;51.046;7.010;2023-04-28T07:24:59;8.18;;;5.45;;
3081;SDS011;1551;51.046;7.010;2023-04-28T07:27:49;7.97;;;5.67;;
3081;SDS011;1551;51.046;7.010;2023-04-28T07:30:37;7.73;;;5.80;;
3081;SDS011;1551;51.046;7.010;2023-04-28T07:33:27;9.15;;;5.75;;
3081;SDS011;1551;51.046;7.010;2023-04-28T07:36:16;9.77;;;5.70;;
3081;SDS011;1551;51.046;7.010;2023-04-28T07:39:05;6.35;;;5.00;;
3081;SDS011;1551;51.046;7.010;2023-04-28T07:41:54;8.48;;;5.30;;
3081;SDS011;1551;51.046;7.010;2023-04-28T07:44:45;8.63;;;5.43;;
3081;SDS011;1551;51.046;7.010;2023-04-28T07:47:34;7.73;;;5.70;;
3081;SDS011;1551;51.046;7.010;2023-04-28T07:50:24;7.13;;;5.38;;
3081;SDS011;1551;51.046;7.010;2023-04-28T07:53:12;6.03;;;5.28;;
3081;SDS011;1551;51.046;7.010;2023-04-28T07:56:01;8.35;;;5.45;;
3081;SDS011;1551;51.046;7.010;2023-04-28T07:58:51;8.10;;;5.43;;
3081;SDS011;1551;51.046;7.010;2023-04-28T08:01:40;8.80;;;5.43;;
3081;SDS011;1551;51.046;7.010;2023-04-28T08:04:30;7.00;;;5.10;;
3081;SDS011;1551;51.046;7.010;2023-04-28T08:07:21;9.57;;;5.40;;
3081;SDS011;1551;51.046;7.010;2023-04-28T08:10:10;7.18;;;5.30;;
3081;SDS011;1551;51.046;7.010;2023-04-28T08:12:59;7.70;;;5.60;;
3081;SDS011;1551;51.046;7.010;2023-04-28T08:15:49;9.27;;;5.53;;
3081;SDS011;1551;51.046;7.010;2023-04-28T08:18:38;6.55;;;4.90;;
3081;SDS011;1551;51.046;7.010;2023-04-28T08:21:27;8.10;;;4.95;;
3081;SDS011;1551;51.046;7.010;2023-04-28T08:24:16;7.90;;;5.30;;
3081;SDS011;1551;51.046;7.010;2023-04-28T08:27:05;7.78;;;5.22;;
3081;SDS011;1551;51.046;7.010;2023-04-28T08:29:54;6.13;;;4.60;;
3081;SDS011;1551;51.046;7.010;2023-04-28T08:32:44;7.22;;;4.95;;
3081;SDS011;1551;51.046;7.010;2023-04-28T08:35:33;7.30;;;5.00;;
3081;SDS011;1551;51.046;7.010;2023-04-28T08:38:22;8.10;;;5.03;;
3081;SDS011;1551;51.046;7.010;2023-04-28T08:41:14;6.88;;;4.95;;
3081;SDS011;1551;51.046;7.010;2023-04-28T08:44:05;6.55;;;4.78;;
3081;SDS011;1551;51.046;7.010;2023-04-28T08:46:57;6.45;;;4.95;;
3081;SDS011;1551;51.046;7.010;2023-04-28T08:49:51;6.72;;;4.55;;
3081;SDS011;1551;51.046;7.010;2023-04-28T08:52:43;5.70;;;4.60;;
3081;SDS011;1551;51.046;7.010;2023-04-28T08:55:32;6.97;;;5.00;;
3081;SDS011;1551;51.046;7.010;2023-04-28T08:58:23;5.45;;;4.82;;
3081;SDS011;1551;51.046;7.010;2023-04-28T09:01:13;7.03;;;4.93;;
3081;SDS011;1551;51.046;7.010;2023-04-28T09:04:02;7.73;;;5.23;;
3081;SDS011;1551;51.046;7.010;2023-04-28T09:06:51;7.60;;;6.73;;
3081;SDS011;1551;51.046;7.010;2023-04-28T09:09:40;8.98;;;6.10;;
3081;SDS011;1551;51.046;7.010;2023-04-28T09:12:35;6.10;;;4.90;;
3081;SDS011;1551;51.046;7.010;2023-04-28T09:15:32;8.77;;;6.72;;
3081;SDS011;1551;51.046;7.010;2023-04-28T09:18:25;5.68;;;4.78;;
3081;SDS011;1551;51.046;7.010;2023-04-28T09:21:14;6.65;;;5.47;;
3081;SDS011;1551;51.046;7.010;2023-04-28T09:24:05;7.35;;;5.43;;
3081;SDS011;1551;51.046;7.010;2023-04-28T09:26:54;6.60;;;5.90;;
3081;SDS011;1551;51.046;7.010;2023-04-28T09:29:53;6.88;;;5.70;;
3081;SDS011;1551;51.046;7.010;2023-04-28T09:32:42;6.65;;;5.63;;
3081;SDS011;1551;51.046;7.010;2023-04-28T09:35:38;7.20;;;6.50;;
3081;SDS011;1551;51.046;7.010;2023-04-28T09:38:28;7.85;;;6.20;;
3081;SDS011;1551;51.046;7.010;2023-04-28T09:41:17;8.43;;;5.95;;
3081;SDS011;1551;51.046;7.010;2023-04-28T09:44:13;7.85;;;6.20;;
3081;SDS011;1551;51.046;7.010;2023-04-28T09:47:18;8.40;;;6.00;;
3081;SDS011;1551;51.046;7.010;2023-04-28T09:50:10;7.47;;;5.93;;
3081;SDS011;1551;51.046;7.010;2023-04-28T09:53:02;8.55;;;6.93;;
3081;SDS011;1551;51.046;7.010;2023-04-28T09:55:52;9.57;;;6.70;;
3081;SDS011;1551;51.046;7.010;2023-04-28T09:58:41;8.45;;;7.55;;
3081;SDS011;1551;51.046;7.010;2023-04-28T10:01:37;9.60;;;6.60;;
3081;SDS011;1551;51.046;7.010;2023-04-28T10:04:28;7.75;;;6.50;;
3081;SDS011;1551;51.046;7.010;2023-04-28T10:07:21;9.87;;;7.50;;
3081;SDS011;1551;51.046;7.010;2023-04-28T10:10:10;8.80;;;7.70;;
3081;SDS011;1551;51.046;7.010;2023-04-28T10:13:02;8.25;;;7.35;;
3081;SDS011;1551;51.046;7.010;2023-04-28T10:15:51;8.38;;;7.10;;
3081;SDS011;1551;51.046;7.010;2023-04-28T10:18:43;9.77;;;8.07;;
3081;SDS011;1551;51.046;7.010;2023-04-28T10:21:34;10.60;;;7.35;;
3081;SDS011;1551;51.046;7.010;2023-04-28T10:24:32;9.07;;;7.47;;
3081;SDS011;1551;51.046;7.010;2023-04-28T10:27:21;9.32;;;8.30;;
3081;SDS011;1551;51.046;7.010;2023-04-28T10:30:18;10.43;;;9.02;;
3081;SDS011;1551;51.046;7.010;2023-04-28T10:36:01;9.47;;;7.77;;
3081;SDS011;1551;51.046;7.010;2023-04-28T10:39:07;10.32;;;8.40;;
3081;SDS011;1551;51.046;7.010;2023-04-28T10:41:57;11.70;;;8.38;;
3081;SDS011;1551;51.046;7.010;2023-04-28T10:44:46;10.60;;;8.48;;
3081;SDS011;1551;51.046;7.010;2023-04-28T10:57:13;9.65;;;8.13;;
3081;SDS011;1551;51.046;7.010;2023-04-28T11:06:36;9.57;;;8.57;;
3081;SDS011;1551;51.046;7.010;2023-04-28T11:12:19;9.35;;;8.35;;
3081;SDS011;1551;51.046;7.010;2023-04-28T11:15:11;10.50;;;9.07;;
3081;SDS011;1551;51.046;7.010;2023-04-28T11:18:01;11.52;;;8.70;;
3081;SDS011;1551;51.046;7.010;2023-04-28T11:20:52;9.90;;;8.40;;
3081;SDS011;1551;51.046;7.010;2023-04-28T11:23:45;9.10;;;8.20;;
3081;SDS011;1551;51.046;7.010;2023-04-28T11:26:36;9.82;;;8.82;;
3081;SDS011;1551;51.046;7.010;2023-04-28T11:32:28;10.88;;;8.80;;
3081;SDS011;1551;51.046;7.010;2023-04-28T11:35:19;11.38;;;8.60;;
3081;SDS011;1551;51.046;7.010;2023-04-28T11:38:08;10.50;;;9.20;;
3081;SDS011;1551;51.046;7.010;2023-04-28T11:40:57;10.43;;;9.38;;
3081;SDS011;1551;51.046;7.010;2023-04-28T11:43:46;10.50;;;8.57;;
3081;SDS011;1551;51.046;7.010;2023-04-28T11:46:35;11.13;;;9.40;;
3081;SDS011;1551;51.046;7.010;2023-04-28T11:49:45;10.57;;;9.47;;
3081;SDS011;1551;51.046;7.010;2023-04-28T11:52:35;10.00;;;9.00;;
3081;SDS011;1551;51.046;7.010;2023-04-28T11:55:24;9.77;;;8.77;;
3081;SDS011;1551;51.046;7.010;2023-04-28T11:58:19;11.00;;;9.82;;
3081;SDS011;1551;51.046;7.010;2023-04-28T12:01:12;9.70;;;8.70;;
3081;SDS011;1551;51.046;7.010;2023-04-28T12:04:03;9.95;;;8.95;;
3081;SDS011;1551;51.046;7.010;2023-04-28T12:07:26;10.40;;;9.15;;
3081;SDS011;1551;51.046;7.010;2023-04-28T12:10:09;11.07;;;9.40;;
3081;SDS011;1551;51.046;7.010;2023-04-28T12:13:13;10.50;;;9.50;;
3081;SDS011;1551;51.046;7.010;2023-04-28T12:16:03;10.25;;;9.02;;
3081;SDS011;1551;51.046;7.010;2023-04-28T12:18:57;9.57;;;8.68;;
3081;SDS011;1551;51.046;7.010;2023-04-28T12:22:02;10.50;;;9.40;;
3081;SDS011;1551;51.046;7.010;2023-04-28T12:28:02;9.80;;;8.90;;
3081;SDS011;1551;51.046;7.010;2023-04-28T12:31:02;9.88;;;8.95;;
3081;SDS011;1551;51.046;7.010;2023-04-28T12:33:52;11.30;;;9.13;;
3081;SDS011;1551;51.046;7.010;2023-04-28T12:36:41;9.68;;;8.70;;
3081;SDS011;1551;51.046;7.010;2023-04-28T12:39:34;10.10;;;9.00;;
3081;SDS011;1551;51.046;7.010;2023-04-28T12:42:24;10.40;;;9.40;;
3081;SDS011;1551;51.046;7.010;2023-04-28T12:45:13;10.02;;;9.02;;
3081;SDS011;1551;51.046;7.010;2023-04-28T12:48:03;10.70;;;8.60;;
3081;SDS011;1551;51.046;7.010;2023-04-28T12:50:52;10.45;;;9.35;;
3081;SDS011;1551;51.046;7.010;2023-04-28T12:53:41;10.40;;;9.15;;
3081;SDS011;1551;51.046;7.010;2023-04-28T12:56:31;9.95;;;8.98;;
3081;SDS011;1551;51.046;7.010;2023-04-28T12:59:20;9.90;;;8.88;;
3081;SDS011;1551;51.046;7.010;2023-04-28T13:02:10;9.45;;;8.55;;
3081;SDS011;1551;51.046;7.010;2023-04-28T13:04:58;9.50;;;8.40;;
3081;SDS011;1551;51.046;7.010;2023-04-28T13:07:47;9.30;;;8.40;;
3081;SDS011;1551;51.046;7.010;2023-04-28T13:10:38;8.90;;;7.70;;
3081;SDS011;1551;51.046;7.010;2023-04-28T13:13:28;7.93;;;7.20;;
3081;SDS011;1551;51.046;7.010;2023-04-28T13:16:17;8.63;;;7.82;;
3081;SDS011;1551;51.046;7.010;2023-04-28T13:19:06;9.55;;;8.40;;
3081;SDS011;1551;51.046;7.010;2023-04-28T13:21:58;8.67;;;7.80;;
3081;SDS011;1551;51.046;7.010;2023-04-28T13:24:47;9.27;;;8.40;;
3081;SDS011;1551;51.046;7.010;2023-04-28T13:27:36;9.80;;;8.75;;
3081;SDS011;1551;51.046;7.010;2023-04-28T13:30:25;9.48;;;8.57;;
3081;SDS011;1551;51.046;7.010;2023-04-28T13:33:14;10.43;;;9.13;;
3081;SDS011;1551;51.046;7.010;2023-04-28T13:36:04;10.23;;;9.13;;
3081;SDS011;1551;51.046;7.010;2023-04-28T13:38:55;10.00;;;9.00;;
3081;SDS011;1551;51.046;7.010;2023-04-28T13:41:44;9.02;;;8.23;;
3081;SDS011;1551;51.046;7.010;2023-04-28T13:44:33;9.05;;;8.15;;
3081;SDS011;1551;51.046;7.010;2023-04-28T13:47:22;7.22;;;6.53;;
3081;SDS011;1551;51.046;7.010;2023-04-28T13:50:12;7.80;;;7.00;;
3081;SDS011;1551;51.046;7.010;2023-04-28T13:53:01;7.45;;;6.75;;
3081;SDS011;1551;51.046;7.010;2023-04-28T13:55:49;7.90;;;6.60;;
3081;SDS011;1551;51.046;7.010;2023-04-28T13:58:41;7.20;;;6.50;;
3081;SDS011;1551;51.046;7.010;2023-04-28T14:01:30;6.78;;;6.15;;
3081;SDS011;1551;51.046;7.010;2023-04-28T14:04:19;6.97;;;6.18;;
3081;SDS011;1551;51.046;7.010;2023-04-28T14:07:07;7.13;;;6.40;;
3081;SDS011;1551;51.046;7.010;2023-04-28T14:09:57;5.95;;;5.45;;
3081;SDS011;1551;51.046;7.010;2023-04-28T14:12:46;6.88;;;6.18;;
3081;SDS011;1551;51.046;7.010;2023-04-28T14:15:35;5.78;;;5.18;;
3081;SDS011;1551;51.046;7.010;2023-04-28T14:18:25;5.80;;;4.38;;
3081;SDS011;1551;51.046;7.010;2023-04-28T14:21:15;5.40;;;4.70;;
3081;SDS011;1551;51.046;7.010;2023-04-28T14:24:04;5.15;;;4.63;;
3081;SDS011;1551;51.046;7.010;2023-04-28T14:26:53;6.20;;;5.57;;
3081;SDS011;1551;51.046;7.010;2023-04-28T14:29:42;6.47;;;4.53;;
3081;SDS011;1551;51.046;7.010;2023-04-28T14:32:32;5.40;;;4.90;;
3081;SDS011;1551;51.046;7.010;2023-04-28T14:35:21;5.20;;;4.70;;
3081;SDS011;1551;51.046;7.010;2023-04-28T14:38:11;5.60;;;4.70;;
3081;SDS011;1551;51.046;7.010;2023-04-28T14:41:01;5.88;;;4.10;;
3081;SDS011;1551;51.046;7.010;2023-04-28T14:43:50;3.42;;;2.80;;
3081;SDS011;1551;51.046;7.010;2023-04-28T14:46:39;3.15;;;2.10;;
3081;SDS011;1551;51.046;7.010;2023-04-28T14:49:28;2.87;;;1.90;;
3081;SDS011;1551;51.046;7.010;2023-04-28T14:52:18;2.80;;;1.70;;
3081;SDS011;1551;51.046;7.010;2023-04-28T14:55:07;2.30;;;1.30;;
3081;SDS011;1551;51.046;7.010;2023-04-28T14:57:56;6.50;;;1.30;;
3081;SDS011;1551;51.046;7.010;2023-04-28T15:00:45;2.78;;;1.40;;
3081;SDS011;1551;51.046;7.010;2023-04-28T15:03:35;3.20;;;1.58;;
3081;SDS011;1551;51.046;7.010;2023-04-28T15:06:24;3.30;;;1.60;;
3081;SDS011;1551;51.046;7.010;2023-04-28T15:09:14;2.88;;;1.65;;
3081;SDS011;1551;51.046;7.010;2023-04-28T15:12:03;2.70;;;1.65;;
3081;SDS011;1551;51.046;7.010;2023-04-28T15:14:53;3.60;;;1.60;;
3081;SDS011;1551;51.046;7.010;2023-04-28T15:17:42;3.00;;;1.40;;
3081;SDS011;1551;51.046;7.010;2023-04-28T15:20:31;2.70;;;1.50;;
3081;SDS011;1551;51.046;7.010;2023-04-28T15:23:26;2.55;;;1.67;;
3081;SDS011;1551;51.046;7.010;2023-04-28T15:26:15;2.88;;;1.77;;
3081;SDS011;1551;51.046;7.010;2023-04-28T15:29:04;3.50;;;1.70;;
3081;SDS011;1551;51.046;7.010;2023-04-28T15:31:53;2.80;;;1.30;;
3081;SDS011;1551;51.046;7.010;2023-04-28T15:34:43;2.20;;;1.30;;
3081;SDS011;1551;51.046;7.010;2023-04-28T15:40:24;3.20;;;2.10;;
3081;SDS011;1551;51.046;7.010;2023-04-28T15:43:13;2.40;;;1.70;;
3081;SDS011;1551;51.046;7.010;2023-04-28T15:46:04;4.50;;;1.73;;
3081;SDS011;1551;51.046;7.010;2023-04-28T15:48:57;3.35;;;1.73;;
3081;SDS011;1551;51.046;7.010;2023-04-28T15:51:46;2.60;;;2.10;;
3081;SDS011;1551;51.046;7.010;2023-04-28T15:54:35;2.78;;;1.75;;
3081;SDS011;1551;51.046;7.010;2023-04-28T15:57:25;2.70;;;1.83;;
3081;SDS011;1551;51.046;7.010;2023-04-28T16:00:14;3.88;;;2.13;;
3081;SDS011;1551;51.046;7.010;2023-04-28T16:03:04;2.90;;;1.80;;
3081;SDS011;1551;51.046;7.010;2023-04-28T16:05:53;3.65;;;1.90;;
3081;SDS011;1551;51.046;7.010;2023-04-28T16:08:43;2.90;;;2.30;;
3081;SDS011;1551;51.046;7.010;2023-04-28T16:11:32;3.00;;;2.00;;
3081;SDS011;1551;51.046;7.010;2023-04-28T16:14:21;3.85;;;2.20;;
3081;SDS011;1551;51.046;7.010;2023-04-28T16:17:10;3.92;;;2.60;;
3081;SDS011;1551;51.046;7.010;2023-04-28T16:19:59;4.07;;;2.10;;
3081;SDS011;1551;51.046;7.010;2023-04-28T16:22:48;3.17;;;1.80;;
3081;SDS011;1551;51.046;7.010;2023-04-28T16:25:37;3.67;;;1.95;;
3081;SDS011;1551;51.046;7.010;2023-04-28T16:28:26;2.60;;;1.70;;
3081;SDS011;1551;51.046;7.010;2023-04-28T16:31:15;2.50;;;1.70;;
3081;SDS011;1551;51.046;7.010;2023-04-28T16:34:04;2.90;;;2.00;;
3081;SDS011;1551;51.046;7.010;2023-04-28T16:36:53;3.47;;;2.17;;
3081;SDS011;1551;51.046;7.010;2023-04-28T16:39:42;3.35;;;2.00;;
3081;SDS011;1551;51.046;7.010;2023-04-28T16:42:31;3.83;;;2.63;;
3081;SDS011;1551;51.046;7.010;2023-04-28T16:45:20;4.45;;;3.03;;
3081;SDS011;1551;51.046;7.010;2023-04-28T16:48:09;6.45;;;3.20;;
3081;SDS011;1551;51.046;7.010;2023-04-28T16:50:58;4.43;;;3.47;;
3081;SDS011;1551;51.046;7.010;2023-04-28T16:53:47;4.07;;;3.58;;
3081;SDS011;1551;51.046;7.010;2023-04-28T16:56:36;4.07;;;2.72;;
3081;SDS011;1551;51.046;7.010;2023-04-28T16:59:27;5.33;;;4.83;;
3081;SDS011;1551;51.046;7.010;2023-04-28T17:02:21;4.70;;;4.30;;
3081;SDS011;1551;51.046;7.010;2023-04-28T17:05:10;3.80;;;2.25;;
3081;SDS011;1551;51.046;7.010;2023-04-28T17:07:59;3.40;;;2.30;;
3081;SDS011;1551;51.046;7.010;2023-04-28T17:10:48;3.35;;;2.40;;
3081;SDS011;1551;51.046;7.010;2023-04-28T17:13:37;3.10;;;2.00;;
3081;SDS011;1551;51.046;7.010;2023-04-28T17:16:29;4.13;;;2.50;;
3081;SDS011;1551;51.046;7.010;2023-04-28T17:19:19;3.00;;;2.13;;
3081;SDS011;1551;51.046;7.010;2023-04-28T17:22:08;4.37;;;2.10;;
3081;SDS011;1551;51.046;7.010;2023-04-28T17:24:57;3.60;;;2.47;;
3081;SDS011;1551;51.046;7.010;2023-04-28T17:27:46;3.25;;;2.00;;
3081;SDS011;1551;51.046;7.010;2023-04-28T17:30:36;3.05;;;2.28;;
3081;SDS011;1551;51.046;7.010;2023-04-28T17:33:25;4.70;;;2.60;;
3081;SDS011;1551;51.046;7.010;2023-04-28T17:36:15;4.30;;;2.45;;
3081;SDS011;1551;51.046;7.010;2023-04-28T17:39:04;3.50;;;2.30;;
3081;SDS011;1551;51.046;7.010;2023-04-28T17:41:53;4.40;;;3.10;;
3081;SDS011;1551;51.046;7.010;2023-04-28T17:44:43;5.60;;;2.60;;
3081;SDS011;1551;51.046;7.010;2023-04-28T17:47:32;3.60;;;2.03;;
3081;SDS011;1551;51.046;7.010;2023-04-28T17:50:21;3.23;;;1.90;;
3081;SDS011;1551;51.046;7.010;2023-04-28T17:53:11;3.17;;;1.92;;
3081;SDS011;1551;51.046;7.010;2023-04-28T17:56:00;4.13;;;2.20;;
3081;SDS011;1551;51.046;7.010;2023-04-28T17:58:50;4.25;;;2.42;;
3081;SDS011;1551;51.046;7.010;2023-04-28T18:01:39;4.40;;;3.53;;
3081;SDS011;1551;51.046;7.010;2023-04-28T18:04:27;3.40;;;2.00;;
3081;SDS011;1551;51.046;7.010;2023-04-28T18:07:17;4.78;;;2.00;;